Time;durP1;ratioP1;P1;durP2;ratioP2;P2;SDS_P1;SDS_P2;PMS_P1;PMS_P2;Temp;Humidity;BMP_temperature;BMP_pressure;BME280_temperature;BME280_humidity;BME280_pressure;Samples;Min_cycle;Max_cycle;Signal;HPM_P1;HPM_P2
2023/08/16 00:00:49;;;;;;;7.50;4.03;;;;;;;16.23;100.00;93334.25;2124209;27;20043;-80
2023/08/16 00:01:50;;;;;;;5.57;3.85;;;;;;;16.24;100.00;93343.09;2116198;28;20468;-81
2023/08/16 00:02:51;;;;;;;4.00;3.70;;;;;;;16.27;100.00;93340.25;2115836;27;20027;-81
2023/08/16 00:03:52;;;;;;;3.75;3.45;;;;;;;16.31;100.00;93342.81;2120504;27;20795;-81
2023/08/16 00:04:53;;;;;;;5.65;3.78;;;;;;;16.17;100.00;93348.78;2106929;28;20073;-81
2023/08/16 00:05:54;;;;;;;5.80;3.92;;;;;;;16.19;100.00;93349.09;2106822;28;20496;-81
2023/08/16 00:06:55;;;;;;;6.05;4.18;;;;;;;16.22;100.00;93343.56;2115529;28;20020;-80
2023/08/16 00:07:56;;;;;;;3.55;3.25;;;;;;;16.12;100.00;93347.44;2123603;27;20038;-81
2023/08/16 00:09:17;;;;;;;5.25;3.20;;;;;;;16.25;100.00;93342.66;2115113;28;20396;-80
2023/08/16 00:10:18;;;;;;;4.53;3.70;;;;;;;16.22;100.00;93340.84;2115326;28;20015;-81
2023/08/16 00:11:18;;;;;;;6.22;3.90;;;;;;;16.18;100.00;93340.25;2100001;28;20468;-81
2023/08/16 00:12:19;;;;;;;4.25;3.50;;;;;;;16.10;100.00;93330.94;2110980;28;20027;-81
2023/08/16 00:13:20;;;;;;;3.83;3.30;;;;;;;16.15;100.00;93343.81;2106748;28;20094;-81
2023/08/16 00:14:22;;;;;;;6.43;3.80;;;;;;;16.19;100.00;93343.69;2119410;27;20097;-80
2023/08/16 00:15:25;;;;;;;4.57;4.07;;;;;;;16.14;100.00;93336.94;2115395;28;20460;-80
2023/08/16 00:16:26;;;;;;;4.47;3.78;;;;;;;16.17;100.00;93340.69;2100389;27;20028;-80
2023/08/16 00:17:27;;;;;;;5.00;3.78;;;;;;;16.06;100.00;93333.00;2115213;27;20023;-80
2023/08/16 00:18:29;;;;;;;4.00;3.63;;;;;;;16.14;100.00;93333.50;2115159;27;20031;-81
2023/08/16 00:19:30;;;;;;;5.93;3.75;;;;;;;16.13;100.00;93335.44;2115268;27;20016;-81
2023/08/16 00:20:31;;;;;;;3.53;3.22;;;;;;;16.07;100.00;93334.53;2114882;28;20023;-81
2023/08/16 00:21:33;;;;;;;6.25;3.42;;;;;;;16.07;100.00;93329.91;2106829;28;20058;-81
2023/08/16 00:22:35;;;;;;;3.75;3.45;;;;;;;16.11;100.00;93327.81;2104436;28;20036;-81
2023/08/16 00:23:36;;;;;;;5.25;4.13;;;;;;;16.06;100.00;93327.63;2098315;28;20107;-81
2023/08/16 00:24:37;;;;;;;3.70;3.38;;;;;;;15.99;100.00;93323.28;2089627;28;20029;-80
2023/08/16 00:25:39;;;;;;;7.40;3.38;;;;;;;15.94;100.00;93323.88;2090025;28;20025;-81
2023/08/16 00:26:40;;;;;;;4.80;3.80;;;;;;;15.82;100.00;93324.72;2106967;28;20407;-81
2023/08/16 00:27:41;;;;;;;4.57;3.50;;;;;;;15.79;100.00;93318.25;2123407;27;20026;-81
2023/08/16 00:28:45;;;;;;;6.47;3.97;;;;;;;15.78;100.00;93316.00;2123535;27;20015;-80
2023/08/16 00:29:46;;;;;;;5.85;4.05;;;;;;;15.83;100.00;93318.13;2108237;28;20534;-81
2023/08/16 00:30:51;;;;;;;4.15;3.75;;;;;;;15.81;100.00;93318.56;2106306;28;20024;-81
2023/08/16 00:31:52;;;;;;;5.57;3.60;;;;;;;15.87;100.00;93318.75;2106890;28;20396;-81
2023/08/16 00:32:55;;;;;;;4.47;3.80;;;;;;;15.80;100.00;93316.31;2112776;28;20028;-81
2023/08/16 00:33:56;;;;;;;4.85;3.90;;;;;;;15.82;100.00;93314.69;2123175;27;20015;-81
2023/08/16 00:34:57;;;;;;;3.38;3.08;;;;;;;15.79;100.00;93317.50;2123600;27;20097;-81
2023/08/16 00:35:58;;;;;;;3.95;3.47;;;;;;;15.80;100.00;93313.59;2115587;28;20475;-81
2023/08/16 00:36:59;;;;;;;4.80;3.53;;;;;;;15.77;100.00;93314.50;2115898;28;20020;-81
2023/08/16 00:38:00;;;;;;;5.85;3.88;;;;;;;15.66;100.00;93314.91;2106191;28;20107;-81
2023/08/16 00:39:02;;;;;;;3.97;3.55;;;;;;;15.74;100.00;93305.34;2097925;28;20039;-81
2023/08/16 00:40:03;;;;;;;4.43;3.63;;;;;;;15.71;100.00;93306.25;2106497;28;20024;-81
2023/08/16 00:41:04;;;;;;;5.57;4.07;;;;;;;15.74;100.00;93307.31;2110976;28;20098;-81
2023/08/16 00:42:05;;;;;;;5.55;3.88;;;;;;;15.76;100.00;93308.38;2115666;28;20027;-80
2023/08/16 00:43:06;;;;;;;4.32;3.92;;;;;;;15.72;100.00;93307.75;2114733;28;20019;-81
2023/08/16 00:44:07;;;;;;;4.90;3.97;;;;;;;15.72;100.00;93304.31;2114576;28;20124;-81
2023/08/16 00:45:09;;;;;;;8.80;3.60;;;;;;;15.65;100.00;93305.31;2115231;28;20464;-81
2023/08/16 00:46:11;;;;;;;5.03;3.80;;;;;;;15.69;100.00;93305.94;2100985;28;20021;-80
2023/08/16 00:47:12;;;;;;;4.60;3.55;;;;;;;15.67;100.00;93307.56;2098366;28;20115;-80
2023/08/16 00:48:14;;;;;;;4.38;3.70;;;;;;;15.57;100.00;93307.50;2114999;28;20447;-80
2023/08/16 00:49:15;;;;;;;5.38;3.55;;;;;;;15.62;100.00;93309.63;2120311;27;20081;-81
2023/08/16 00:50:16;;;;;;;4.07;3.45;;;;;;;15.67;100.00;93302.19;2106634;28;20404;-81
2023/08/16 00:51:17;;;;;;;4.30;3.90;;;;;;;15.72;100.00;93302.38;2112862;28;20027;-80
2023/08/16 00:52:18;;;;;;;4.10;3.47;;;;;;;15.75;100.00;93301.47;2123290;27;20057;-81
2023/08/16 00:53:22;;;;;;;5.25;3.83;;;;;;;15.68;100.00;93301.00;2115078;28;20396;-81
2023/08/16 00:54:23;;;;;;;4.93;3.53;;;;;;;15.74;100.00;93291.88;2110480;28;20403;-80
2023/08/16 00:55:24;;;;;;;4.15;3.75;;;;;;;15.69;100.00;93294.41;2114950;27;20028;-80
2023/08/16 00:56:25;;;;;;;4.25;3.80;;;;;;;15.67;100.00;93300.25;2114547;28;20019;-81
2023/08/16 00:57:26;;;;;;;5.00;3.90;;;;;;;15.60;100.00;93295.84;2111502;28;20453;-81
2023/08/16 00:58:27;;;;;;;5.10;3.60;;;;;;;15.64;100.00;93286.88;2114925;28;20023;-80
2023/08/16 00:59:28;;;;;;;6.80;3.72;;;;;;;15.67;100.00;93286.00;2094469;28;20086;-81
2023/08/16 01:00:29;;;;;;;7.05;3.25;;;;;;;15.69;100.00;93287.06;2106510;28;20062;-81
2023/08/16 01:01:31;;;;;;;5.65;3.70;;;;;;;15.64;100.00;93290.34;2105712;28;20028;-80
2023/08/16 01:02:32;;;;;;;4.13;3.75;;;;;;;15.63;100.00;93283.44;2097098;28;20168;-80
2023/08/16 01:03:33;;;;;;;4.63;3.65;;;;;;;15.59;100.00;93288.97;2106383;28;20031;-81
2023/08/16 01:04:34;;;;;;;3.90;3.60;;;;;;;15.55;100.00;93287.59;2114725;28;20073;-80
2023/08/16 01:05:35;;;;;;;4.32;3.92;;;;;;;15.54;100.00;93297.63;2114648;28;20092;-80
2023/08/16 01:06:36;;;;;;;4.65;3.67;;;;;;;15.57;100.00;93288.66;2114851;28;20046;-80
2023/08/16 01:07:37;;;;;;;4.95;3.38;;;;;;;15.58;100.00;93297.47;2114726;28;20024;-80
2023/08/16 01:08:38;;;;;;;5.60;3.88;;;;;;;15.51;100.00;93292.38;2114612;28;20550;-80
2023/08/16 01:09:40;;;;;;;7.32;3.80;;;;;;;15.51;100.00;93287.00;2120941;27;20491;-81
2023/08/16 01:10:47;;;;;;;6.50;3.70;;;;;;;15.48;100.00;93294.00;2120409;27;20023;-80
2023/08/16 01:12:21;;;;;;;6.03;3.70;;;;;;;15.51;100.00;93295.06;2114884;28;20023;-81
2023/08/16 01:13:28;;;;;;;5.15;3.83;;;;;;;15.52;100.00;93300.00;2106878;28;20453;-80
2023/08/16 01:14:41;;;;;;;5.28;3.67;;;;;;;15.54;100.00;93291.47;2111002;28;20020;-81
2023/08/16 01:15:48;;;;;;;5.55;3.67;;;;;;;15.57;100.00;93293.28;2114535;28;20627;-81
2023/08/16 01:16:51;;;;;;;4.38;3.92;;;;;;;15.49;100.00;93295.50;2114991;28;20035;-81
2023/08/16 01:17:53;;;;;;;8.48;3.50;;;;;;;15.46;100.00;93291.00;2109722;28;20031;-80
2023/08/16 01:18:57;;;;;;;4.65;3.80;;;;;;;15.47;100.00;93289.81;2106393;28;20044;-81
2023/08/16 01:19:59;;;;;;;6.10;3.90;;;;;;;15.30;100.00;93291.97;2114953;28;20028;-81
2023/08/16 01:21:01;;;;;;;4.68;3.85;;;;;;;15.35;100.00;93293.34;2115110;28;20012;-81
2023/08/16 01:22:19;;;;;;;7.03;3.90;;;;;;;15.42;100.00;93293.09;2117866;27;20028;-81
2023/08/16 01:24:04;;;;;;;6.18;3.63;;;;;;;15.42;100.00;93292.34;2123777;27;20023;-80
2023/08/16 01:25:24;;;;;;;3.67;3.38;;;;;;;15.49;100.00;93290.09;2106385;28;20066;-81
2023/08/16 01:26:35;;;;;;;4.22;3.83;;;;;;;15.45;100.00;93296.81;2118353;27;20112;-80
2023/08/16 01:27:36;;;;;;;7.88;4.20;;;;;;;15.36;100.00;93292.91;2132162;27;20030;-80
2023/08/16 01:28:39;;;;;;;4.95;3.58;;;;;;;15.32;100.00;93292.28;2132575;27;20027;-81
2023/08/16 01:29:40;;;;;;;6.05;3.70;;;;;;;15.37;100.00;93293.66;2122912;27;20016;-81
2023/08/16 01:30:42;;;;;;;4.57;3.50;;;;;;;15.41;100.00;93296.97;2123090;27;20587;-80
2023/08/16 01:31:44;;;;;;;4.43;3.85;;;;;;;15.44;100.00;93292.63;2114684;28;20027;-81
2023/08/16 01:32:45;;;;;;;4.88;3.70;;;;;;;15.43;100.00;93294.56;2114948;27;20483;-80
2023/08/16 01:33:46;;;;;;;5.18;3.83;;;;;;;15.42;100.00;93295.78;2132338;27;20075;-80
2023/08/16 01:34:47;;;;;;;5.53;3.70;;;;;;;15.45;100.00;93288.75;2132068;27;20087;-80
2023/08/16 01:35:48;;;;;;;4.07;3.45;;;;;;;15.38;100.00;93291.72;2122875;27;20030;-81
2023/08/16 01:36:49;;;;;;;3.90;3.50;;;;;;;15.24;100.00;93296.44;2123019;27;20027;-80
2023/08/16 01:37:50;;;;;;;3.88;3.47;;;;;;;15.34;100.00;93297.97;2122724;27;20019;-80
2023/08/16 01:38:52;;;;;;;4.60;3.88;;;;;;;15.41;100.00;93293.50;2114723;28;20030;-80
2023/08/16 01:40:03;;;;;;;5.03;4.07;;;;;;;15.42;100.00;93295.03;2114650;27;20024;-80
2023/08/16 01:41:24;;;;;;;5.70;4.43;;;;;;;15.43;100.00;93291.13;2114564;28;20019;-80
2023/08/16 01:42:26;;;;;;;5.80;3.90;;;;;;;15.52;100.00;93291.91;2119140;27;20030;-80
2023/08/16 01:43:30;;;;;;;4.32;3.90;;;;;;;15.44;100.00;93303.41;2122741;27;20023;-81
2023/08/16 01:44:34;;;;;;;4.75;4.32;;;;;;;15.41;100.00;93296.19;2114909;28;20034;-80
2023/08/16 01:45:35;;;;;;;5.57;4.32;;;;;;;15.39;100.00;93299.34;2114909;27;20019;-81
2023/08/16 01:46:38;;;;;;;4.57;4.18;;;;;;;15.34;100.00;93289.91;2114424;28;20107;-80
2023/08/16 01:47:39;;;;;;;4.78;4.38;;;;;;;15.39;100.00;93288.56;2118326;27;20451;-80
2023/08/16 01:48:42;;;;;;;5.28;4.32;;;;;;;15.34;100.00;93289.91;2123093;27;20023;-80
2023/08/16 01:49:44;;;;;;;4.80;4.40;;;;;;;15.22;100.00;93292.66;2114913;27;20464;-80
2023/08/16 01:50:45;;;;;;;5.72;4.45;;;;;;;15.26;100.00;93287.91;2114377;27;20019;-80
2023/08/16 01:51:46;;;;;;;5.47;4.32;;;;;;;15.23;100.00;93291.47;2122896;27;20081;-80
2023/08/16 01:52:47;;;;;;;4.80;4.30;;;;;;;15.28;100.00;93282.84;2118229;27;20494;-80
2023/08/16 01:53:54;;;;;;;4.75;4.25;;;;;;;15.27;100.00;93286.72;2097795;28;20017;-80
2023/08/16 01:54:55;;;;;;;4.95;4.40;;;;;;;15.30;100.00;93283.88;2099374;28;20024;-80
2023/08/16 01:55:56;;;;;;;4.85;4.20;;;;;;;15.28;100.00;93280.16;2117239;27;20516;-80
2023/08/16 01:56:57;;;;;;;6.82;4.63;;;;;;;15.28;100.00;93282.84;2105845;28;20384;-80
2023/08/16 01:58:00;;;;;;;4.82;4.10;;;;;;;15.25;100.00;93281.78;2106008;28;20024;-80
2023/08/16 01:59:01;;;;;;;6.22;4.10;;;;;;;15.42;100.00;93282.31;2115306;27;20023;-80
2023/08/16 02:00:03;;;;;;;5.80;4.22;;;;;;;15.43;100.00;93286.50;2114581;28;20023;-80
2023/08/16 02:01:04;;;;;;;6.25;3.95;;;;;;;15.36;100.00;93292.13;2120501;27;20572;-80
2023/08/16 02:02:05;;;;;;;8.18;4.70;;;;;;;15.36;100.00;93287.53;2132050;27;20037;-80
2023/08/16 02:03:06;;;;;;;5.10;4.60;;;;;;;15.30;100.00;93291.97;2125062;27;20030;-80
2023/08/16 02:04:07;;;;;;;4.63;4.10;;;;;;;15.14;100.00;93289.47;2124982;27;20030;-80
2023/08/16 02:05:22;;;;;;;4.13;3.72;;;;;;;15.08;100.00;93283.16;2122910;27;20027;-80
2023/08/16 02:06:23;;;;;;;4.38;3.97;;;;;;;15.07;100.00;93285.13;2116106;27;20801;-80
2023/08/16 02:07:24;;;;;;;4.93;4.18;;;;;;;15.11;100.00;93282.31;2114006;28;20019;-80
2023/08/16 02:08:25;;;;;;;6.53;4.70;;;;;;;15.11;100.00;93287.69;2114499;28;20072;-80
2023/08/16 02:09:26;;;;;;;5.60;3.97;;;;;;;15.15;100.00;93287.56;2114313;28;20100;-81
2023/08/16 02:10:26;;;;;;;4.63;4.20;;;;;;;15.03;100.00;93287.19;2114422;28;20096;-81
2023/08/16 02:11:30;;;;;;;4.25;3.90;;;;;;;15.05;100.00;93289.44;2114419;27;20051;-80
2023/08/16 02:12:30;;;;;;;4.25;3.80;;;;;;;15.08;100.00;93286.63;2122410;27;20233;-80
2023/08/16 02:13:31;;;;;;;6.85;4.18;;;;;;;15.01;100.00;93283.41;2122661;27;20019;-80
2023/08/16 02:14:32;;;;;;;5.78;4.10;;;;;;;15.01;100.00;93291.50;2122709;27;20094;-80
2023/08/16 02:15:33;;;;;;;5.00;4.03;;;;;;;14.92;100.00;93291.44;2114502;28;20102;-80
2023/08/16 02:16:34;;;;;;;4.32;4.03;;;;;;;14.93;100.00;93290.28;2114089;28;20538;-80
2023/08/16 02:17:35;;;;;;;8.30;4.35;;;;;;;14.90;100.00;93293.81;2114147;28;20039;-81
2023/08/16 02:18:36;;;;;;;4.47;4.07;;;;;;;14.91;100.00;93281.88;2106059;28;20023;-80
2023/08/16 02:19:37;;;;;;;7.97;4.00;;;;;;;14.94;100.00;93289.81;2116781;27;20023;-81
2023/08/16 02:20:38;;;;;;;4.30;3.83;;;;;;;14.79;100.00;93283.41;2114435;28;20632;-80
2023/08/16 02:21:39;;;;;;;4.75;3.92;;;;;;;14.85;100.00;93287.06;2114425;28;20027;-80
2023/08/16 02:22:40;;;;;;;4.35;3.92;;;;;;;14.93;100.00;93276.81;2114090;28;20047;-80
2023/08/16 02:23:43;;;;;;;4.03;3.72;;;;;;;14.85;100.00;93281.69;2122715;27;20027;-80
2023/08/16 02:24:44;;;;;;;4.03;3.58;;;;;;;14.97;100.00;93280.09;2107463;28;20031;-80
2023/08/16 02:25:54;;;;;;;5.15;4.15;;;;;;;14.93;100.00;93277.56;2098851;28;20048;-81
2023/08/16 02:26:54;;;;;;;;;;;;;;;14.98;100.00;93279.69;2115065;28;20027;-80
2023/08/16 02:27:55;;;;;;;6.53;4.00;;;;;;;14.99;100.00;93277.72;2120346;28;19911;-80
2023/08/16 02:28:56;;;;;;;4.65;4.15;;;;;;;14.95;100.00;93288.63;2122635;28;20077;-80
2023/08/16 02:29:57;;;;;;;6.75;4.15;;;;;;;14.95;100.00;93280.53;2122960;28;20023;-80
2023/08/16 02:31:05;;;;;;;4.35;3.95;;;;;;;14.97;100.00;93278.19;2119284;28;20054;-80
2023/08/16 02:32:06;;;;;;;4.00;3.70;;;;;;;15.00;100.00;93285.38;2114435;28;20165;-80
2023/08/16 02:33:08;;;;;;;4.20;3.80;;;;;;;14.93;100.00;93279.50;2122238;28;20023;-80
2023/08/16 02:34:09;;;;;;;4.28;3.88;;;;;;;14.90;100.00;93281.13;2120822;28;20026;-80
2023/08/16 02:35:09;;;;;;;5.63;4.13;;;;;;;14.83;100.00;93284.06;2106004;28;20020;-80
2023/08/16 02:36:10;;;;;;;4.50;4.10;;;;;;;14.79;100.00;93278.81;2111757;28;20028;-80
2023/08/16 02:37:11;;;;;;;5.05;4.10;;;;;;;14.80;100.00;93282.25;2122771;28;20558;-80
2023/08/16 02:38:12;;;;;;;4.38;4.07;;;;;;;14.75;100.00;93288.19;2122674;28;20027;-80
2023/08/16 02:39:13;;;;;;;4.05;3.65;;;;;;;14.81;100.00;93281.81;2120050;28;20030;-80
2023/08/16 02:40:14;;;;;;;4.43;4.03;;;;;;;14.77;100.00;93283.88;2115015;28;20103;-80
2023/08/16 02:41:15;;;;;;;4.68;4.28;;;;;;;14.81;100.00;93281.81;2120340;28;20065;-81
2023/08/16 02:42:16;;;;;;;4.20;3.80;;;;;;;14.85;100.00;93274.38;2114016;28;20814;-80
2023/08/16 02:43:17;;;;;;;4.53;4.13;;;;;;;14.82;100.00;93282.56;2097756;28;20086;-80
2023/08/16 02:44:18;;;;;;;4.53;3.72;;;;;;;14.84;100.00;93285.56;2106916;28;20064;-80
2023/08/16 02:45:19;;;;;;;4.78;4.28;;;;;;;14.82;100.00;93286.00;2114376;28;20093;-80
2023/08/16 02:46:20;;;;;;;5.38;4.22;;;;;;;14.77;100.00;93285.81;2113944;28;20073;-81
2023/08/16 02:47:21;;;;;;;4.97;4.18;;;;;;;14.64;100.00;93285.88;2105941;28;20020;-80
2023/08/16 02:48:22;;;;;;;5.00;3.85;;;;;;;14.64;100.00;93277.03;2113643;28;20042;-80
2023/08/16 02:49:23;;;;;;;4.22;3.83;;;;;;;14.69;100.00;93284.56;2113931;28;20026;-80
2023/08/16 02:50:24;;;;;;;4.45;4.00;;;;;;;14.71;100.00;93287.56;2114304;28;20024;-80
2023/08/16 02:51:25;;;;;;;6.47;4.47;;;;;;;14.74;100.00;93289.38;2108889;28;20027;-80
2023/08/16 02:52:26;;;;;;;4.70;4.28;;;;;;;14.73;100.00;93285.19;2110795;28;20088;-80
2023/08/16 02:53:26;;;;;;;4.95;4.10;;;;;;;14.63;100.00;93287.06;2105602;28;20016;-80
2023/08/16 02:54:27;;;;;;;4.45;4.05;;;;;;;14.56;100.00;93287.28;2114032;28;20082;-80
2023/08/16 02:55:29;;;;;;;4.60;4.20;;;;;;;14.57;100.00;93283.41;2114996;28;20086;-80
2023/08/16 02:56:35;;;;;;;5.63;4.28;;;;;;;14.65;100.00;93289.31;2118895;28;20023;-81
2023/08/16 02:57:36;;;;;;;6.43;4.32;;;;;;;14.69;100.00;93287.25;2115022;28;20027;-80
2023/08/16 02:58:38;;;;;;;7.05;4.10;;;;;;;14.68;100.00;93289.19;2114296;28;20019;-80
2023/08/16 02:59:40;;;;;;;4.85;4.13;;;;;;;14.69;100.00;93293.38;2118015;28;20071;-80
2023/08/16 03:00:41;;;;;;;4.88;4.40;;;;;;;14.71;100.00;93295.66;2123390;27;20034;-80
2023/08/16 03:01:42;;;;;;;4.13;3.83;;;;;;;14.70;100.00;93291.44;2116622;27;20692;-81
2023/08/16 03:02:43;;;;;;;4.78;3.85;;;;;;;14.64;100.00;93301.25;2120406;28;20105;-81
2023/08/16 03:03:46;;;;;;;6.97;3.97;;;;;;;14.70;100.00;93302.94;2105787;28;20035;-81
2023/08/16 03:04:48;;;;;;;4.40;4.00;;;;;;;14.71;100.00;93292.97;2118618;28;20390;-80
2023/08/16 03:05:49;;;;;;;4.00;3.60;;;;;;;14.66;100.00;93301.56;2123382;27;20476;-81
2023/08/16 03:06:50;;;;;;;7.88;4.03;;;;;;;14.72;100.00;93305.22;2120845;28;20015;-80
2023/08/16 03:07:51;;;;;;;5.57;4.60;;;;;;;14.77;100.00;93302.72;2113525;28;20027;-81
2023/08/16 03:08:51;;;;;;;4.90;4.10;;;;;;;14.75;100.00;93301.63;2114244;28;20034;-81
2023/08/16 03:09:52;;;;;;;6.22;4.78;;;;;;;14.69;100.00;93304.13;2117499;28;20702;-80
2023/08/16 03:10:53;;;;;;;7.95;4.53;;;;;;;14.68;100.00;93293.81;2114184;28;20035;-81
2023/08/16 03:11:54;;;;;;;4.97;4.20;;;;;;;14.89;100.00;93297.72;2109441;28;20619;-80
2023/08/16 03:12:55;;;;;;;5.30;4.63;;;;;;;14.91;100.00;93304.16;2113196;28;20030;-81
2023/08/16 03:13:56;;;;;;;5.10;4.68;;;;;;;14.89;100.00;93297.72;2097491;28;20025;-80
2023/08/16 03:14:57;;;;;;;8.27;4.45;;;;;;;15.02;100.00;93296.47;2123649;27;20050;-80
2023/08/16 03:15:58;;;;;;;7.80;4.60;;;;;;;15.01;100.00;93294.19;2122464;28;20026;-80
2023/08/16 03:16:59;;;;;;;6.10;5.20;;;;;;;14.99;100.00;93302.72;2113773;28;20027;-80
2023/08/16 03:18:00;;;;;;;6.18;4.18;;;;;;;15.02;100.00;93306.47;2120836;28;20039;-80
2023/08/16 03:19:01;;;;;;;8.38;4.40;;;;;;;15.01;100.00;93305.72;2114151;28;20442;-80
2023/08/16 03:20:03;;;;;;;7.18;4.80;;;;;;;15.06;100.00;93313.22;2119315;28;20076;-80
2023/08/16 03:21:05;;;;;;;5.97;4.25;;;;;;;15.04;100.00;93315.59;2114198;28;20023;-80
2023/08/16 03:22:09;;;;;;;9.57;4.80;;;;;;;15.10;100.00;93318.47;2114271;28;20020;-81
2023/08/16 03:23:10;;;;;;;6.70;4.85;;;;;;;15.22;100.00;93316.91;2110984;28;20032;-80
2023/08/16 03:24:10;;;;;;;5.93;4.63;;;;;;;15.28;100.00;93313.22;2114211;27;20399;-80
2023/08/16 03:25:11;;;;;;;8.60;4.80;;;;;;;15.32;100.00;93311.16;2119715;27;20038;-80
2023/08/16 03:26:13;;;;;;;8.30;4.97;;;;;;;15.38;100.00;93311.31;2115382;28;20027;-80
2023/08/16 03:27:13;;;;;;;6.90;4.93;;;;;;;15.38;100.00;93311.31;2124973;27;20394;-81
2023/08/16 03:28:21;;;;;;;5.40;4.90;;;;;;;15.42;100.00;93303.84;2123815;27;20023;-80
2023/08/16 03:29:22;;;;;;;5.22;4.70;;;;;;;15.39;100.00;93304.72;2108254;28;20020;-80
2023/08/16 03:30:23;;;;;;;9.93;5.00;;;;;;;15.38;100.00;93311.31;2097164;28;20025;-81
2023/08/16 03:31:24;;;;;;;5.60;5.00;;;;;;;15.42;100.00;93311.94;2107254;28;20027;-81
2023/08/16 03:32:25;;;;;;;8.10;4.88;;;;;;;15.45;100.00;93311.06;2121255;27;20079;-80
2023/08/16 03:33:26;;;;;;;7.93;5.28;;;;;;;15.46;100.00;93309.13;2124116;27;20015;-80
2023/08/16 03:34:30;;;;;;;6.90;4.90;;;;;;;15.47;100.00;93308.66;2124129;27;20043;-80
2023/08/16 03:35:31;;;;;;;6.18;5.00;;;;;;;15.50;100.00;93302.41;2115521;28;20023;-81
2023/08/16 03:36:31;;;;;;;6.05;5.20;;;;;;;15.43;100.00;93310.75;2098418;28;20020;-80
2023/08/16 03:37:32;;;;;;;7.45;5.40;;;;;;;15.42;100.00;93303.84;2098826;28;20095;-80
2023/08/16 03:38:33;;;;;;;7.70;5.10;;;;;;;15.40;100.00;93306.22;2107001;28;20073;-80
2023/08/16 03:39:34;;;;;;;8.57;4.68;;;;;;;15.39;100.00;93317.44;2123510;27;20023;-80
2023/08/16 03:40:35;;;;;;;5.88;4.85;;;;;;;15.36;100.00;93321.75;2115742;28;20170;-80
2023/08/16 03:41:37;;;;;;;4.72;4.30;;;;;;;15.32;100.00;93318.44;2118354;27;20069;-81
2023/08/16 03:42:38;;;;;;;5.57;5.07;;;;;;;15.34;100.00;93318.78;2115647;27;20020;-80
2023/08/16 03:43:38;;;;;;;6.28;5.15;;;;;;;15.28;100.00;93325.94;2117639;27;20419;-81
2023/08/16 03:44:39;;;;;;;5.40;4.78;;;;;;;15.28;100.00;93324.00;2116992;27;20045;-80
2023/08/16 03:45:40;;;;;;;5.32;4.63;;;;;;;15.25;100.00;93321.41;2124179;27;20378;-80
2023/08/16 03:46:41;;;;;;;5.85;4.47;;;;;;;15.21;100.00;93318.09;2123629;27;20110;-80
2023/08/16 03:47:43;;;;;;;5.15;4.75;;;;;;;15.21;100.00;93324.22;2115463;28;20031;-80
2023/08/16 03:48:46;;;;;;;6.28;4.60;;;;;;;15.16;100.00;93319.41;2115590;27;20500;-81
2023/08/16 03:49:47;;;;;;;6.05;4.63;;;;;;;15.18;100.00;93313.59;2107194;28;20066;-81
2023/08/16 03:50:48;;;;;;;5.13;4.40;;;;;;;15.19;100.00;93320.47;2106889;28;20027;-80
2023/08/16 03:51:49;;;;;;;6.32;4.63;;;;;;;15.11;100.00;93309.97;2118834;27;20023;-81
2023/08/16 03:52:50;;;;;;;5.30;4.63;;;;;;;15.08;100.00;93320.88;2116243;28;20478;-81
2023/08/16 03:53:51;;;;;;;5.00;4.60;;;;;;;15.04;100.00;93315.59;2123961;27;20454;-80
2023/08/16 03:54:53;;;;;;;4.93;4.40;;;;;;;15.03;100.00;93318.75;2118818;27;20035;-80
2023/08/16 03:55:56;;;;;;;7.18;4.70;;;;;;;15.06;100.00;93318.63;2115531;27;20019;-81
2023/08/16 03:56:57;;;;;;;8.70;4.25;;;;;;;15.10;100.00;93323.84;2116489;27;20668;-81
2023/08/16 03:57:58;;;;;;;6.07;4.68;;;;;;;15.01;100.00;93321.88;2123727;27;20030;-80
2023/08/16 03:58:59;;;;;;;5.57;4.25;;;;;;;14.95;100.00;93322.88;2124094;27;20487;-81
2023/08/16 04:00:00;;;;;;;4.78;4.35;;;;;;;14.93;100.00;93327.94;2115438;28;20024;-80
2023/08/16 04:01:01;;;;;;;5.47;4.10;;;;;;;14.88;100.00;93331.19;2115497;28;20042;-81
2023/08/16 04:02:03;;;;;;;6.90;4.40;;;;;;;14.88;100.00;93337.31;2123767;27;20031;-81
2023/08/16 04:03:04;;;;;;;4.95;4.50;;;;;;;15.03;100.00;93332.19;2122531;27;20027;-80
2023/08/16 04:04:05;;;;;;;4.78;4.32;;;;;;;15.02;100.00;93336.09;2117526;27;20540;-80
2023/08/16 04:05:11;;;;;;;5.38;4.28;;;;;;;15.04;100.00;93334.44;2120125;27;20024;-80
2023/08/16 04:06:12;;;;;;;4.65;4.28;;;;;;;15.06;100.00;93334.78;2106905;28;20112;-80
2023/08/16 04:07:13;;;;;;;6.32;4.40;;;;;;;14.96;100.00;93327.81;2114709;28;20092;-80
2023/08/16 04:08:14;;;;;;;5.28;4.25;;;;;;;14.92;100.00;93329.88;2114190;28;20380;-80
2023/08/16 04:09:16;;;;;;;5.68;4.22;;;;;;;14.86;100.00;93328.94;2107127;28;20040;-80
2023/08/16 04:10:17;;;;;;;5.05;3.72;;;;;;;14.86;100.00;93327.00;2115344;27;20026;-80
2023/08/16 04:11:18;;;;;;;6.07;4.57;;;;;;;14.92;100.00;93323.72;2123637;27;20076;-80
2023/08/16 04:12:19;;;;;;;5.05;4.65;;;;;;;14.99;100.00;93326.94;2124227;27;20502;-80
2023/08/16 04:13:21;;;;;;;5.53;4.45;;;;;;;14.99;100.00;93328.88;2118925;27;20356;-80
2023/08/16 04:14:22;;;;;;;7.32;4.43;;;;;;;14.91;100.00;93320.28;2106821;28;20034;-80
2023/08/16 04:15:23;;;;;;;5.13;4.60;;;;;;;14.89;100.00;93328.06;2113341;28;20026;-80
2023/08/16 04:16:24;;;;;;;4.82;4.30;;;;;;;14.71;100.00;93327.94;2114067;28;20043;-80
2023/08/16 04:17:25;;;;;;;4.57;4.18;;;;;;;14.74;100.00;93327.03;2098515;28;20048;-80
2023/08/16 04:18:27;;;;;;;5.45;4.47;;;;;;;14.75;100.00;93326.63;2104856;28;20024;-80
2023/08/16 04:19:31;;;;;;;6.32;4.97;;;;;;;14.80;100.00;93322.63;2115613;27;20031;-79
2023/08/16 04:20:32;;;;;;;5.53;4.57;;;;;;;14.84;100.00;93321.31;2131715;27;20053;-80
2023/08/16 04:21:33;;;;;;;8.95;4.38;;;;;;;14.98;100.00;93330.81;2117558;27;20051;-80
2023/08/16 04:22:35;;;;;;;6.47;4.47;;;;;;;14.98;100.00;93333.50;2123571;27;20039;-80
2023/08/16 04:23:35;;;;;;;4.97;4.30;;;;;;;14.98;100.00;93325.44;2123543;27;20397;-80
2023/08/16 04:24:36;;;;;;;5.32;4.28;;;;;;;15.04;100.00;93331.75;2106616;28;20042;-81
2023/08/16 04:25:38;;;;;;;5.32;4.53;;;;;;;14.99;100.00;93324.25;2106900;28;20031;-80
2023/08/16 04:26:40;;;;;;;6.68;4.18;;;;;;;14.96;100.00;93330.50;2114956;28;20030;-80
2023/08/16 04:27:42;;;;;;;4.88;4.43;;;;;;;14.82;100.00;93323.66;2115304;28;20023;-80
2023/08/16 04:28:43;;;;;;;4.70;4.13;;;;;;;14.77;100.00;93320.78;2121574;27;20023;-80
2023/08/16 04:29:44;;;;;;;4.88;4.38;;;;;;;14.76;100.00;93327.38;2115072;28;20046;-80
2023/08/16 04:30:45;;;;;;;4.43;3.92;;;;;;;14.79;100.00;93321.88;2123821;27;20027;-80
2023/08/16 04:31:46;;;;;;;7.38;4.65;;;;;;;14.85;100.00;93327.44;2115184;28;20015;-80
2023/08/16 04:32:47;;;;;;;4.70;4.22;;;;;;;14.75;100.00;93323.16;2106728;28;20404;-80
2023/08/16 04:33:49;;;;;;;5.13;4.63;;;;;;;14.67;100.00;93325.34;2120473;27;20076;-80
2023/08/16 04:34:50;;;;;;;5.75;4.57;;;;;;;14.77;100.00;93324.22;2123430;27;20046;-80
2023/08/16 04:35:51;;;;;;;6.25;4.50;;;;;;;14.74;100.00;93332.44;2123609;27;20082;-80
2023/08/16 04:36:52;;;;;;;7.35;4.63;;;;;;;14.66;100.00;93323.09;2123962;27;20027;-80
2023/08/16 04:37:53;;;;;;;4.97;4.68;;;;;;;14.74;100.00;93327.03;2123622;27;20023;-80
2023/08/16 04:38:53;;;;;;;6.50;4.93;;;;;;;14.86;100.00;93326.25;2114975;27;20416;-80
2023/08/16 04:39:55;;;;;;;6.65;4.57;;;;;;;15.00;100.00;93327.69;2114871;28;20031;-80
2023/08/16 04:40:55;;;;;;;6.30;4.40;;;;;;;15.01;100.00;93321.09;2123612;27;20020;-80
2023/08/16 04:41:56;;;;;;;5.53;4.13;;;;;;;14.98;100.00;93320.06;2123470;27;20064;-80
2023/08/16 04:43:22;;;;;;;6.90;4.55;;;;;;;14.94;100.00;93322.13;2111999;28;20039;-80
2023/08/16 04:44:23;;;;;;;4.68;4.20;;;;;;;14.83;100.00;93324.41;2105182;28;20392;-80
2023/08/16 04:45:24;;;;;;;5.90;4.38;;;;;;;14.76;100.00;93322.00;2115028;28;20069;-80
2023/08/16 04:46:25;;;;;;;5.32;4.70;;;;;;;14.70;100.00;93327.16;2115708;27;20080;-80
2023/08/16 04:47:26;;;;;;;7.63;4.32;;;;;;;14.73;100.00;93325.53;2115273;28;20024;-80
2023/08/16 04:48:27;;;;;;;10.45;4.50;;;;;;;14.80;100.00;93319.94;2123170;27;20022;-80
2023/08/16 04:49:28;;;;;;;6.10;4.38;;;;;;;14.86;100.00;93318.91;2114837;28;20073;-80